sensor_id;sensor_type;location;lat;lon;timestamp;pressure;altitude;pressure_sealevel;temperature;humidity
65897;BME280;52677;50.898;10.854;2022-12-05T00:01:40;98431.22;;;-1.03;100.00
65897;BME280;52677;50.898;10.854;2022-12-05T00:03:41;98423.38;;;-1.05;100.00
65897;BME280;52677;50.898;10.854;2022-12-05T00:05:42;98433.94;;;-1.03;100.00
65897;BME280;52677;50.898;10.854;2022-12-05T00:07:42;98417.44;;;-1.07;100.00
65897;BME280;52677;50.898;10.854;2022-12-05T00:09:43;98426.09;;;-1.05;100.00
65897;BME280;52677;50.898;10.854;2022-12-05T00:11:44;98426.41;;;-1.06;100.00
65897;BME280;52677;50.898;10.854;2022-12-05T00:13:45;98425.28;;;-1.05;100.00
65897;BME280;52677;50.898;10.854;2022-12-05T00:15:46;98424.97;;;-1.04;100.00
65897;BME280;52677;50.898;10.854;2022-12-05T00:17:46;98424.50;;;-1.06;100.00
65897;BME280;52677;50.898;10.854;2022-12-05T00:19:47;98425.78;;;-1.03;100.00
65897;BME280;52677;50.898;10.854;2022-12-05T00:21:47;98423.88;;;-1.03;100.00
65897;BME280;52677;50.898;10.854;2022-12-05T00:23:48;98426.09;;;-1.05;100.00
65897;BME280;52677;50.898;10.854;2022-12-05T00:25:49;98432.63;;;-1.06;100.00
65897;BME280;52677;50.898;10.854;2022-12-05T00:27:49;98438.56;;;-1.04;100.00
65897;BME280;52677;50.898;10.854;2022-12-05T00:29:49;98441.75;;;-1.02;100.00
65897;BME280;52677;50.898;10.854;2022-12-05T00:31:50;98440.66;;;-1.01;100.00
65897;BME280;52677;50.898;10.854;2022-12-05T00:33:51;98439.06;;;-1.02;100.00
65897;BME280;52677;50.898;10.854;2022-12-05T00:35:51;98440.88;;;-0.97;100.00
65897;BME280;52677;50.898;10.854;2022-12-05T00:37:52;98440.97;;;-1.02;100.00
65897;BME280;52677;50.898;10.854;2022-12-05T00:39:52;98440.16;;;-1.03;100.00
65897;BME280;52677;50.898;10.854;2022-12-05T00:41:52;98439.34;;;-1.03;100.00
65897;BME280;52677;50.898;10.854;2022-12-05T00:43:53;98444.28;;;-1.05;100.00
65897;BME280;52677;50.898;10.854;2022-12-05T00:45:54;98448.63;;;-1.04;100.00
65897;BME280;52677;50.898;10.854;2022-12-05T00:47:54;98451.03;;;-1.03;100.00
65897;BME280;52677;50.898;10.854;2022-12-05T00:49:55;98449.59;;;-1.00;100.00
65897;BME280;52677;50.898;10.854;2022-12-05T00:51:55;98448.81;;;-1.01;100.00
65897;BME280;52677;50.898;10.854;2022-12-05T00:54:03;98452.63;;;-1.02;100.00
65897;BME280;52677;50.898;10.854;2022-12-05T00:56:09;98453.13;;;-1.00;100.00
65897;BME280;52677;50.898;10.854;2022-12-05T00:58:10;98448.00;;;-1.01;100.00
65897;BME280;52677;50.898;10.854;2022-12-05T01:00:10;98447.19;;;-1.02;100.00
65897;BME280;52677;50.898;10.854;2022-12-05T01:02:11;98442.56;;;-1.01;100.00
65897;BME280;52677;50.898;10.854;2022-12-05T01:04:21;98440.97;;;-1.02;100.00
65897;BME280;52677;50.898;10.854;2022-12-05T01:06:22;98442.88;;;-1.03;100.00
65897;BME280;52677;50.898;10.854;2022-12-05T01:08:23;98444.28;;;-1.05;100.00
65897;BME280;52677;50.898;10.854;2022-12-05T01:10:24;98448.31;;;-1.03;100.00
65897;BME280;52677;50.898;10.854;2022-12-05T01:12:24;98451.53;;;-1.01;100.00
65897;BME280;52677;50.898;10.854;2022-12-05T01:14:25;98455.84;;;-1.00;100.00
65897;BME280;52677;50.898;10.854;2022-12-05T01:16:30;98446.09;;;-1.01;100.00
65897;BME280;52677;50.898;10.854;2022-12-05T01:18:38;98460.19;;;-0.99;100.00
65897;BME280;52677;50.898;10.854;2022-12-05T01:20:39;98460.19;;;-0.99;100.00
65897;BME280;52677;50.898;10.854;2022-12-05T01:22:40;98462.91;;;-0.99;100.00
65897;BME280;52677;50.898;10.854;2022-12-05T01:24:40;98459.38;;;-0.99;100.00
65897;BME280;52677;50.898;10.854;2022-12-05T01:26:41;98456.16;;;-1.01;100.00
65897;BME280;52677;50.898;10.854;2022-12-05T01:28:42;98450.41;;;-1.00;100.00
65897;BME280;52677;50.898;10.854;2022-12-05T01:30:44;98444.47;;;-1.02;100.00
65897;BME280;52677;50.898;10.854;2022-12-05T01:32:45;98450.22;;;-1.03;100.00
65897;BME280;52677;50.898;10.854;2022-12-05T01:34:45;98446.69;;;-1.04;100.00
65897;BME280;52677;50.898;10.854;2022-12-05T01:36:45;98454.53;;;-1.02;100.00
65897;BME280;52677;50.898;10.854;2022-12-05T01:38:46;98445.91;;;-1.04;100.00
65897;BME280;52677;50.898;10.854;2022-12-05T01:40:46;98455.34;;;-1.02;100.00
65897;BME280;52677;50.898;10.854;2022-12-05T01:42:47;98446.69;;;-1.04;100.00
65897;BME280;52677;50.898;10.854;2022-12-05T01:46:49;98450.41;;;-1.00;100.00
65897;BME280;52677;50.898;10.854;2022-12-05T01:48:52;98446.88;;;-1.00;100.00
65897;BME280;52677;50.898;10.854;2022-12-05T01:50:54;98457.47;;;-0.99;100.00
65897;BME280;52677;50.898;10.854;2022-12-05T01:52:54;98457.16;;;-0.97;100.00
65897;BME280;52677;50.898;10.854;2022-12-05T01:55:00;98459.06;;;-0.98;100.00
65897;BME280;52677;50.898;10.854;2022-12-05T01:57:07;98458.28;;;-0.98;100.00
65897;BME280;52677;50.898;10.854;2022-12-05T01:59:10;98456.38;;;-0.98;100.00
65897;BME280;52677;50.898;10.854;2022-12-05T02:01:13;98455.03;;;-1.00;100.00
65897;BME280;52677;50.898;10.854;2022-12-05T02:03:19;98458.88;;;-1.01;100.00
65897;BME280;52677;50.898;10.854;2022-12-05T02:05:28;98459.66;;;-1.01;100.00
65897;BME280;52677;50.898;10.854;2022-12-05T02:07:30;98455.84;;;-1.00;100.00
65897;BME280;52677;50.898;10.854;2022-12-05T02:09:31;98455.56;;;-0.98;100.00
65897;BME280;52677;50.898;10.854;2022-12-05T02:11:32;98455.03;;;-1.00;100.00
65897;BME280;52677;50.898;10.854;2022-12-05T02:13:46;98447.69;;;-1.00;100.00
65897;BME280;52677;50.898;10.854;2022-12-05T02:16:03;98455.34;;;-1.02;100.00
65897;BME280;52677;50.898;10.854;2022-12-05T02:32:23;98469.41;;;-1.00;100.00
65897;BME280;52677;50.898;10.854;2022-12-05T02:34:51;98471.34;;;-1.00;100.00
65897;BME280;52677;50.898;10.854;2022-12-05T02:39:21;98472.13;;;-1.00;100.00
65897;BME280;52677;50.898;10.854;2022-12-05T02:42:07;98474.56;;;-0.98;100.00
65897;BME280;52677;50.898;10.854;2022-12-05T02:44:10;98470.53;;;-1.01;100.00
65897;BME280;52677;50.898;10.854;2022-12-05T02:46:17;98460.78;;;-1.02;100.00
65897;BME280;52677;50.898;10.854;2022-12-05T02:48:19;98459.97;;;-1.02;100.00
65897;BME280;52677;50.898;10.854;2022-12-05T02:50:27;98458.06;;;-1.02;100.00
65897;BME280;52677;50.898;10.854;2022-12-05T02:52:30;98465.63;;;-0.99;100.00
65897;BME280;52677;50.898;10.854;2022-12-05T02:54:37;98455.84;;;-1.00;100.00
65897;BME280;52677;50.898;10.854;2022-12-05T02:56:39;98451.25;;;-0.99;100.00
65897;BME280;52677;50.898;10.854;2022-12-05T02:58:54;98454.53;;;-1.02;100.00
65897;BME280;52677;50.898;10.854;2022-12-05T03:00:56;98454.53;;;-1.02;100.00
65897;BME280;52677;50.898;10.854;2022-12-05T03:02:58;98452.84;;;-0.98;100.00
65897;BME280;52677;50.898;10.854;2022-12-05T03:05:21;98452.31;;;-1.00;100.00
65897;BME280;52677;50.898;10.854;2022-12-05T03:07:27;98447.19;;;-1.02;100.00
65897;BME280;52677;50.898;10.854;2022-12-05T03:09:46;98443.38;;;-1.01;100.00
65897;BME280;52677;50.898;10.854;2022-12-05T03:11:52;98457.75;;;-1.00;100.00
65897;BME280;52677;50.898;10.854;2022-12-05T03:13:55;98450.41;;;-1.00;100.00
65897;BME280;52677;50.898;10.854;2022-12-05T03:16:00;98443.38;;;-1.01;100.00
65897;BME280;52677;50.898;10.854;2022-12-05T03:18:27;98449.59;;;-1.00;100.00
65897;BME280;52677;50.898;10.854;2022-12-05T03:20:28;98457.75;;;-1.00;100.00
65897;BME280;52677;50.898;10.854;2022-12-05T03:22:38;98450.41;;;-1.00;100.00
65897;BME280;52677;50.898;10.854;2022-12-05T03:24:41;98448.00;;;-1.01;100.00
65897;BME280;52677;50.898;10.854;2022-12-05T03:27:06;98452.84;;;-0.98;100.00
65897;BME280;52677;50.898;10.854;2022-12-05T03:29:21;98449.31;;;-0.99;100.00
65897;BME280;52677;50.898;10.854;2022-12-05T03:31:39;98451.25;;;-0.99;100.00
65897;BME280;52677;50.898;10.854;2022-12-05T03:33:43;98457.97;;;-0.97;100.00
65897;BME280;52677;50.898;10.854;2022-12-05T03:37:57;98448.72;;;-0.96;100.00
65897;BME280;52677;50.898;10.854;2022-12-05T03:40:17;98454.13;;;-0.96;100.00
65897;BME280;52677;50.898;10.854;2022-12-05T03:42:29;98462.28;;;-0.96;100.00
65897;BME280;52677;50.898;10.854;2022-12-05T03:44:41;98460.38;;;-0.95;100.00
65897;BME280;52677;50.898;10.854;2022-12-05T03:46:47;98459.56;;;-0.96;100.00
65897;BME280;52677;50.898;10.854;2022-12-05T03:48:58;98463.59;;;-0.93;100.00
65897;BME280;52677;50.898;10.854;2022-12-05T03:51:04;98463.28;;;-0.92;100.00
65897;BME280;52677;50.898;10.854;2022-12-05T03:53:36;98463.81;;;-0.90;100.00
65897;BME280;52677;50.898;10.854;2022-12-05T03:55:39;98464.09;;;-0.91;100.00
65897;BME280;52677;50.898;10.854;2022-12-05T03:58:00;98457.84;;;-0.92;100.00
65897;BME280;52677;50.898;10.854;2022-12-05T04:00:07;98464.09;;;-0.91;100.00
65897;BME280;52677;50.898;10.854;2022-12-05T04:02:27;98458.97;;;-0.93;100.00
65897;BME280;52677;50.898;10.854;2022-12-05T04:04:39;98454.63;;;-0.94;100.00
65897;BME280;52677;50.898;10.854;2022-12-05T04:06:44;98456.56;;;-0.94;100.00
65897;BME280;52677;50.898;10.854;2022-12-05T04:08:50;98459.25;;;-0.94;100.00
65897;BME280;52677;50.898;10.854;2022-12-05T04:10:54;98458.16;;;-0.93;100.00
65897;BME280;52677;50.898;10.854;2022-12-05T04:13:00;98459.25;;;-0.94;100.00
65897;BME280;52677;50.898;10.854;2022-12-05T04:15:21;98454.13;;;-0.96;100.00
65897;BME280;52677;50.898;10.854;2022-12-05T04:17:56;98456.25;;;-0.93;100.00
65897;BME280;52677;50.898;10.854;2022-12-05T04:22:25;98453.03;;;-0.95;100.00
65897;BME280;52677;50.898;10.854;2022-12-05T04:24:30;98454.94;;;-0.95;100.00
65897;BME280;52677;50.898;10.854;2022-12-05T04:26:59;98453.03;;;-0.95;100.00
65897;BME280;52677;50.898;10.854;2022-12-05T04:29:26;98463.91;;;-0.95;100.00
65897;BME280;52677;50.898;10.854;2022-12-05T04:31:34;98462.28;;;-0.96;100.00
65897;BME280;52677;50.898;10.854;2022-12-05T04:33:54;98466.59;;;-0.95;100.00
65897;BME280;52677;50.898;10.854;2022-12-05T04:38:27;98475.56;;;-0.94;100.00
65897;BME280;52677;50.898;10.854;2022-12-05T04:40:36;98470.94;;;-0.94;100.00
65897;BME280;52677;50.898;10.854;2022-12-05T04:42:39;98472.53;;;-0.93;100.00
65897;BME280;52677;50.898;10.854;2022-12-05T04:45:02;98474.13;;;-0.92;100.00
65897;BME280;52677;50.898;10.854;2022-12-05T04:47:06;98480.69;;;-0.93;100.00
65897;BME280;52677;50.898;10.854;2022-12-05T04:49:10;98479.88;;;-0.93;100.00
65897;BME280;52677;50.898;10.854;2022-12-05T04:51:16;98472.03;;;-0.95;100.00
65897;BME280;52677;50.898;10.854;2022-12-05T04:53:18;98472.53;;;-0.93;100.00
65897;BME280;52677;50.898;10.854;2022-12-05T04:55:21;98475.25;;;-0.93;100.00
65897;BME280;52677;50.898;10.854;2022-12-05T04:57:30;98469.03;;;-0.93;100.00
65897;BME280;52677;50.898;10.854;2022-12-05T04:59:33;98467.41;;;-0.94;100.00
65897;BME280;52677;50.898;10.854;2022-12-05T05:01:40;98472.03;;;-0.95;100.00
65897;BME280;52677;50.898;10.854;2022-12-05T05:04:08;98470.44;;;-0.96;100.00
65897;BME280;52677;50.898;10.854;2022-12-05T05:06:11;98473.94;;;-0.95;100.00
65897;BME280;52677;50.898;10.854;2022-12-05T05:08:20;98470.44;;;-0.96;100.00
65897;BME280;52677;50.898;10.854;2022-12-05T05:10:32;98470.13;;;-0.94;100.00
65897;BME280;52677;50.898;10.854;2022-12-05T05:12:34;98469.31;;;-0.95;100.00
65897;BME280;52677;50.898;10.854;2022-12-05T05:14:34;98473.66;;;-0.94;100.00
65897;BME280;52677;50.898;10.854;2022-12-05T05:16:37;98473.16;;;-0.96;100.00
65897;BME280;52677;50.898;10.854;2022-12-05T05:18:37;98471.25;;;-0.95;100.00
65897;BME280;52677;50.898;10.854;2022-12-05T05:20:38;98468.53;;;-0.95;100.00
65897;BME280;52677;50.898;10.854;2022-12-05T05:22:38;98482.09;;;-0.95;100.00
65897;BME280;52677;50.898;10.854;2022-12-05T05:24:38;98475.56;;;-0.94;100.00
65897;BME280;52677;50.898;10.854;2022-12-05T05:26:41;98483.94;;;-0.91;100.00
65897;BME280;52677;50.898;10.854;2022-12-05T05:28:42;98470.34;;;-0.91;100.00
65897;BME280;52677;50.898;10.854;2022-12-05T05:30:42;98474.94;;;-0.91;100.00
65897;BME280;52677;50.898;10.854;2022-12-05T05:32:42;98479.56;;;-0.92;100.00
65897;BME280;52677;50.898;10.854;2022-12-05T05:34:43;98480.38;;;-0.91;100.00
65897;BME280;52677;50.898;10.854;2022-12-05T05:36:43;98466.78;;;-0.91;100.00
65897;BME280;52677;50.898;10.854;2022-12-05T05:38:46;98474.94;;;-0.91;100.00
65897;BME280;52677;50.898;10.854;2022-12-05T05:40:46;98478.78;;;-0.92;100.00
65897;BME280;52677;50.898;10.854;2022-12-05T05:42:48;98473.88;;;-0.90;100.00
65897;BME280;52677;50.898;10.854;2022-12-05T05:44:49;98486.34;;;-0.89;100.00
65897;BME280;52677;50.898;10.854;2022-12-05T05:46:50;98484.72;;;-0.90;100.00
65897;BME280;52677;50.898;10.854;2022-12-05T05:48:50;98484.19;;;-0.92;100.00
65897;BME280;52677;50.898;10.854;2022-12-05T05:50:51;98481.00;;;-0.94;100.00
65897;BME280;52677;50.898;10.854;2022-12-05T05:52:51;98492.34;;;-0.92;100.00
65897;BME280;52677;50.898;10.854;2022-12-05T05:54:51;98490.75;;;-0.93;100.00
65897;BME280;52677;50.898;10.854;2022-12-05T05:56:51;98484.19;;;-0.92;100.00
65897;BME280;52677;50.898;10.854;2022-12-05T05:58:57;98481.22;;;-0.91;100.00
65897;BME280;52677;50.898;10.854;2022-12-05T06:01:09;98485.00;;;-0.92;100.00
65897;BME280;52677;50.898;10.854;2022-12-05T06:03:10;98483.09;;;-0.91;100.00
65897;BME280;52677;50.898;10.854;2022-12-05T06:05:10;98491.75;;;-0.89;100.00
65897;BME280;52677;50.898;10.854;2022-12-05T06:07:10;98489.06;;;-0.89;100.00
65897;BME280;52677;50.898;10.854;2022-12-05T06:09:11;98490.97;;;-0.90;100.00
65897;BME280;52677;50.898;10.854;2022-12-05T06:11:20;98487.72;;;-0.92;100.00
65897;BME280;52677;50.898;10.854;2022-12-05T06:13:21;98494.78;;;-0.91;100.00
65897;BME280;52677;50.898;10.854;2022-12-05T06:15:22;98499.91;;;-0.89;100.00
65897;BME280;52677;50.898;10.854;2022-12-05T06:17:22;98505.34;;;-0.89;100.00
65897;BME280;52677;50.898;10.854;2022-12-05T06:19:22;98505.94;;;-0.92;100.00
65897;BME280;52677;50.898;10.854;2022-12-05T06:21:23;98499.38;;;-0.91;100.00
65897;BME280;52677;50.898;10.854;2022-12-05T06:23:24;98502.94;;;-0.91;100.00
65897;BME280;52677;50.898;10.854;2022-12-05T06:25:25;98496.97;;;-0.93;100.00
65897;BME280;52677;50.898;10.854;2022-12-05T06:27:28;98504.81;;;-0.91;100.00
65897;BME280;52677;50.898;10.854;2022-12-05T06:29:29;98520.03;;;-0.90;100.00
65897;BME280;52677;50.898;10.854;2022-12-05T06:31:29;98507.53;;;-0.91;100.00
65897;BME280;52677;50.898;10.854;2022-12-05T06:33:30;98511.09;;;-0.91;100.00
65897;BME280;52677;50.898;10.854;2022-12-05T06:35:31;98510.56;;;-0.93;100.00
65897;BME280;52677;50.898;10.854;2022-12-05T06:37:34;98512.16;;;-0.92;100.00
65897;BME280;52677;50.898;10.854;2022-12-05T06:39:35;98506.72;;;-0.92;100.00
65897;BME280;52677;50.898;10.854;2022-12-05T06:41:35;98526.28;;;-0.90;100.00
65897;BME280;52677;50.898;10.854;2022-12-05T06:43:36;98527.06;;;-0.89;100.00
65897;BME280;52677;50.898;10.854;2022-12-05T06:45:37;98521.13;;;-0.91;100.00
65897;BME280;52677;50.898;10.854;2022-12-05T06:47:37;98527.38;;;-0.91;100.00
65897;BME280;52677;50.898;10.854;2022-12-05T06:49:38;98524.66;;;-0.91;100.00
65897;BME280;52677;50.898;10.854;2022-12-05T06:51:38;98523.03;;;-0.92;100.00
65897;BME280;52677;50.898;10.854;2022-12-05T06:53:39;98517.59;;;-0.92;100.00
65897;BME280;52677;50.898;10.854;2022-12-05T06:55:39;98512.16;;;-0.92;100.00
65897;BME280;52677;50.898;10.854;2022-12-05T06:57:40;98521.44;;;-0.93;100.00
65897;BME280;52677;50.898;10.854;2022-12-05T06:59:40;98521.13;;;-0.91;100.00
65897;BME280;52677;50.898;10.854;2022-12-05T07:01:41;98532.81;;;-0.91;100.00
65897;BME280;52677;50.898;10.854;2022-12-05T07:03:42;98527.38;;;-0.91;100.00
65897;BME280;52677;50.898;10.854;2022-12-05T07:05:43;98529.00;;;-0.90;100.00
65897;BME280;52677;50.898;10.854;2022-12-05T07:07:43;98529.78;;;-0.89;100.00
65897;BME280;52677;50.898;10.854;2022-12-05T07:09:44;98536.84;;;-0.88;100.00
65897;BME280;52677;50.898;10.854;2022-12-05T07:11:50;98532.50;;;-0.89;100.00
65897;BME280;52677;50.898;10.854;2022-12-05T07:13:50;98537.94;;;-0.89;100.00
65897;BME280;52677;50.898;10.854;2022-12-05T07:15:51;98543.06;;;-0.88;100.00
65897;BME280;52677;50.898;10.854;2022-12-05T07:17:51;98546.59;;;-0.87;100.00
65897;BME280;52677;50.898;10.854;2022-12-05T07:19:52;98539.56;;;-0.88;100.00
65897;BME280;52677;50.898;10.854;2022-12-05T07:21:52;98540.34;;;-0.88;100.00
65897;BME280;52677;50.898;10.854;2022-12-05T07:23:53;98547.09;;;-0.85;100.00
65897;BME280;52677;50.898;10.854;2022-12-05T07:25:53;98552.72;;;-0.81;100.00
65897;BME280;52677;50.898;10.854;2022-12-05T07:27:54;98553.53;;;-0.81;100.00
65897;BME280;52677;50.898;10.854;2022-12-05T07:29:54;98553.22;;;-0.79;100.00
65897;BME280;52677;50.898;10.854;2022-12-05T07:31:55;98564.28;;;-0.76;100.00
65897;BME280;52677;50.898;10.854;2022-12-05T07:33:55;98561.56;;;-0.76;100.00
65897;BME280;52677;50.898;10.854;2022-12-05T07:36:00;98558.06;;;-0.76;100.00
65897;BME280;52677;50.898;10.854;2022-12-05T07:38:01;98557.75;;;-0.75;100.00
65897;BME280;52677;50.898;10.854;2022-12-05T07:40:02;98563.00;;;-0.78;100.00
65897;BME280;52677;50.898;10.854;2022-12-05T07:42:02;98565.91;;;-0.75;100.00
65897;BME280;52677;50.898;10.854;2022-12-05T07:44:03;98564.00;;;-0.74;100.00
65897;BME280;52677;50.898;10.854;2022-12-05T07:46:04;98562.91;;;-0.73;100.00
65897;BME280;52677;50.898;10.854;2022-12-05T07:48:05;98559.38;;;-0.74;100.00
65897;BME280;52677;50.898;10.854;2022-12-05T07:50:05;98567.22;;;-0.72;100.00
65897;BME280;52677;50.898;10.854;2022-12-05T07:52:06;98566.31;;;-0.68;100.00
65897;BME280;52677;50.898;10.854;2022-12-05T07:54:06;98569.81;;;-0.67;100.00
65897;BME280;52677;50.898;10.854;2022-12-05T07:56:09;98569.63;;;-0.71;100.00
65897;BME280;52677;50.898;10.854;2022-12-05T07:58:10;98571.84;;;-0.73;100.00
65897;BME280;52677;50.898;10.854;2022-12-05T08:00:11;98572.66;;;-0.72;100.00
65897;BME280;52677;50.898;10.854;2022-12-05T08:02:11;98574.25;;;-0.71;100.00
65897;BME280;52677;50.898;10.854;2022-12-05T08:04:12;98578.09;;;-0.72;100.00
65897;BME280;52677;50.898;10.854;2022-12-05T08:06:18;98587.06;;;-0.72;100.00
65897;BME280;52677;50.898;10.854;2022-12-05T08:08:19;98589.75;;;-0.72;100.00
65897;BME280;52677;50.898;10.854;2022-12-05T08:10:19;98592.97;;;-0.70;100.00
65897;BME280;52677;50.898;10.854;2022-12-05T08:12:19;98597.31;;;-0.69;100.00
65897;BME280;52677;50.898;10.854;2022-12-05T08:14:20;98595.69;;;-0.70;100.00
65897;BME280;52677;50.898;10.854;2022-12-05T08:16:23;98589.47;;;-0.70;100.00
65897;BME280;52677;50.898;10.854;2022-12-05T08:18:24;98591.88;;;-0.69;100.00
65897;BME280;52677;50.898;10.854;2022-12-05T08:20:24;98599.44;;;-0.66;100.00
65897;BME280;52677;50.898;10.854;2022-12-05T08:22:24;98596.41;;;-0.64;100.00
65897;BME280;52677;50.898;10.854;2022-12-05T08:24:25;98599.94;;;-0.64;100.00
65897;BME280;52677;50.898;10.854;2022-12-05T08:26:30;98599.63;;;-0.62;100.00
65897;BME280;52677;50.898;10.854;2022-12-05T08:28:31;98600.94;;;-0.60;100.00
65897;BME280;52677;50.898;10.854;2022-12-05T08:30:32;98596.03;;;-0.58;100.00
65897;BME280;52677;50.898;10.854;2022-12-05T08:32:33;98601.63;;;-0.54;100.00
65897;BME280;52677;50.898;10.854;2022-12-05T08:34:33;98604.84;;;-0.52;100.00
65897;BME280;52677;50.898;10.854;2022-12-05T08:36:33;98599.41;;;-0.52;100.00
65897;BME280;52677;50.898;10.854;2022-12-05T08:38:34;98605.66;;;-0.51;100.00
65897;BME280;52677;50.898;10.854;2022-12-05T08:40:35;98614.84;;;-0.47;100.00
65897;BME280;52677;50.898;10.854;2022-12-05T08:42:35;98607.47;;;-0.47;100.00
65897;BME280;52677;50.898;10.854;2022-12-05T08:44:35;98613.41;;;-0.45;100.00
65897;BME280;52677;50.898;10.854;2022-12-05T08:46:36;98608.78;;;-0.44;100.00
65897;BME280;52677;50.898;10.854;2022-12-05T08:48:38;98613.63;;;-0.41;100.00
65897;BME280;52677;50.898;10.854;2022-12-05T08:50:38;98620.16;;;-0.42;100.00
65897;BME280;52677;50.898;10.854;2022-12-05T08:52:38;98622.59;;;-0.41;100.00
65897;BME280;52677;50.898;10.854;2022-12-05T08:54:39;98610.31;;;-0.38;100.00
65897;BME280;52677;50.898;10.854;2022-12-05T08:56:39;98616.53;;;-0.38;100.00
65897;BME280;52677;50.898;10.854;2022-12-05T08:58:40;98623.28;;;-0.35;100.00
65897;BME280;52677;50.898;10.854;2022-12-05T09:00:41;98627.41;;;-0.38;100.00
65897;BME280;52677;50.898;10.854;2022-12-05T09:02:41;98626.31;;;-0.37;100.00
65897;BME280;52677;50.898;10.854;2022-12-05T09:04:42;98628.22;;;-0.37;100.00
65897;BME280;52677;50.898;10.854;2022-12-05T09:06:42;98621.97;;;-0.38;100.00
65897;BME280;52677;50.898;10.854;2022-12-05T09:08:43;98629.50;;;-0.35;100.00
65897;BME280;52677;50.898;10.854;2022-12-05T09:10:43;98630.03;;;-0.33;100.00
65897;BME280;52677;50.898;10.854;2022-12-05T09:12:44;98643.63;;;-0.33;100.00
65897;BME280;52677;50.898;10.854;2022-12-05T09:14:44;98641.72;;;-0.32;100.00
65897;BME280;52677;50.898;10.854;2022-12-05T09:16:46;98655.31;;;-0.32;100.00
65897;BME280;52677;50.898;10.854;2022-12-05T09:18:47;98651.78;;;-0.33;100.00
65897;BME280;52677;50.898;10.854;2022-12-05T09:20:48;98638.47;;;-0.34;100.00
65897;BME280;52677;50.898;10.854;2022-12-05T09:22:51;98645.25;;;-0.32;100.00
65897;BME280;52677;50.898;10.854;2022-12-05T09:24:51;98641.72;;;-0.32;100.00
65897;BME280;52677;50.898;10.854;2022-12-05T09:26:51;98644.13;;;-0.31;100.00
65897;BME280;52677;50.898;10.854;2022-12-05T09:28:52;98646.84;;;-0.31;100.00
65897;BME280;52677;50.898;10.854;2022-12-05T09:31:01;98653.09;;;-0.30;100.00
65897;BME280;52677;50.898;10.854;2022-12-05T09:33:01;98648.94;;;-0.28;100.00
65897;BME280;52677;50.898;10.854;2022-12-05T09:35:02;98647.34;;;-0.29;100.00
65897;BME280;52677;50.898;10.854;2022-12-05T09:37:04;98654.09;;;-0.26;100.00
65897;BME280;52677;50.898;10.854;2022-12-05T09:39:05;98657.31;;;-0.24;100.00
65897;BME280;52677;50.898;10.854;2022-12-05T09:45:28;98653.28;;;-0.26;100.00
65897;BME280;52677;50.898;10.854;2022-12-05T09:48:04;98661.44;;;-0.26;100.00
65897;BME280;52677;50.898;10.854;2022-12-05T09:50:21;98653.59;;;-0.28;100.00
65897;BME280;52677;50.898;10.854;2022-12-05T09:52:32;98654.69;;;-0.29;100.00
65897;BME280;52677;50.898;10.854;2022-12-05T09:54:34;98656.13;;;-0.32;100.00
65897;BME280;52677;50.898;10.854;2022-12-05T09:56:34;98655.50;;;-0.29;100.00
65897;BME280;52677;50.898;10.854;2022-12-05T09:58:49;98646.22;;;-0.28;100.00
65897;BME280;52677;50.898;10.854;2022-12-05T10:00:53;98652.47;;;-0.27;100.00
65897;BME280;52677;50.898;10.854;2022-12-05T10:03:18;98647.84;;;-0.26;100.00
65897;BME280;52677;50.898;10.854;2022-12-05T10:05:39;98654.09;;;-0.26;100.00
65897;BME280;52677;50.898;10.854;2022-12-05T10:08:05;98647.34;;;-0.29;100.00
65897;BME280;52677;50.898;10.854;2022-12-05T10:10:20;98651.66;;;-0.28;100.00
65897;BME280;52677;50.898;10.854;2022-12-05T10:12:57;98650.56;;;-0.26;100.00
65897;BME280;52677;50.898;10.854;2022-12-05T10:17:34;98651.09;;;-0.24;100.00
65897;BME280;52677;50.898;10.854;2022-12-05T10:19:41;98646.94;;;-0.22;100.00
65897;BME280;52677;50.898;10.854;2022-12-05T10:21:56;98647.44;;;-0.20;100.00
65897;BME280;52677;50.898;10.854;2022-12-05T10:24:05;98641.19;;;-0.20;100.00
65897;BME280;52677;50.898;10.854;2022-12-05T10:26:13;98638.97;;;-0.18;100.00
65897;BME280;52677;50.898;10.854;2022-12-05T10:28:27;98630.50;;;-0.17;100.00
65897;BME280;52677;50.898;10.854;2022-12-05T10:30:32;98632.31;;;-0.12;100.00
65897;BME280;52677;50.898;10.854;2022-12-05T10:32:42;98625.78;;;-0.11;100.00
65897;BME280;52677;50.898;10.854;2022-12-05T10:34:45;98637.94;;;-0.09;100.00
65897;BME280;52677;50.898;10.854;2022-12-05T10:36:54;98637.66;;;-0.07;100.00
65897;BME280;52677;50.898;10.854;2022-12-05T10:38:56;98639.78;;;-0.04;100.00
65897;BME280;52677;50.898;10.854;2022-12-05T10:40:59;98638.06;;;0.00;100.00
65897;BME280;52677;50.898;10.854;2022-12-05T10:43:04;98634.72;;;0.03;100.00
65897;BME280;52677;50.898;10.854;2022-12-05T10:45:12;98631.06;;;0.08;100.00
65897;BME280;52677;50.898;10.854;2022-12-05T10:47:12;98629.47;;;0.07;100.00
65897;BME280;52677;50.898;10.854;2022-12-05T10:49:13;98640.03;;;0.08;100.00
65897;BME280;52677;50.898;10.854;2022-12-05T10:51:16;98625.63;;;0.08;100.00
65897;BME280;52677;50.898;10.854;2022-12-05T10:53:24;98631.06;;;0.08;100.00
65897;BME280;52677;50.898;10.854;2022-12-05T10:55:30;98624.25;;;0.10;100.00
65897;BME280;52677;50.898;10.854;2022-12-05T10:57:33;98620.91;;;0.13;100.00
65897;BME280;52677;50.898;10.854;2022-12-05T10:59:44;98622.81;;;0.13;100.00
65897;BME280;52677;50.898;10.854;2022-12-05T11:01:49;98624.41;;;0.14;100.00
65897;BME280;52677;50.898;10.854;2022-12-05T11:03:56;98611.31;;;0.16;100.00
65897;BME280;52677;50.898;10.854;2022-12-05T11:06:01;98621.28;;;0.20;100.00
65897;BME280;52677;50.898;10.854;2022-12-05T11:08:02;98627.44;;;0.26;100.00
65897;BME280;52677;50.898;10.854;2022-12-05T11:10:18;98626.81;;;0.29;100.00
65897;BME280;52677;50.898;10.854;2022-12-05T11:12:28;98625.38;;;0.32;100.00
65897;BME280;52677;50.898;10.854;2022-12-05T11:14:35;98627.50;;;0.35;100.00
65897;BME280;52677;50.898;10.854;2022-12-05T11:16:37;98637.44;;;0.39;100.00